sensor_id;sensor_type;location;lat;lon;timestamp;P1;durP1;ratioP1;P2;durP2;ratioP2
61640;SDS011;62201;49.966;8.342;2022-09-13T00:01:05;12.40;;;7.22;;
61640;SDS011;62201;49.966;8.342;2022-09-13T00:03:31;9.65;;;6.60;;
61640;SDS011;62201;49.966;8.342;2022-09-13T00:05:56;10.52;;;6.85;;
61640;SDS011;62201;49.966;8.342;2022-09-13T00:08:21;10.35;;;6.72;;
61640;SDS011;62201;49.966;8.342;2022-09-13T00:10:47;9.10;;;6.60;;
61640;SDS011;62201;49.966;8.342;2022-09-13T00:13:13;10.93;;;6.90;;
61640;SDS011;62201;49.966;8.342;2022-09-13T00:15:44;10.50;;;6.38;;
61640;SDS011;62201;49.966;8.342;2022-09-13T00:18:11;12.98;;;7.05;;
61640;SDS011;62201;49.966;8.342;2022-09-13T00:20:37;12.93;;;7.03;;
61640;SDS011;62201;49.966;8.342;2022-09-13T00:23:03;11.07;;;6.80;;
61640;SDS011;62201;49.966;8.342;2022-09-13T00:25:28;12.00;;;7.10;;
61640;SDS011;62201;49.966;8.342;2022-09-13T00:27:54;14.57;;;6.82;;
61640;SDS011;62201;49.966;8.342;2022-09-13T00:30:19;10.60;;;7.90;;
61640;SDS011;62201;49.966;8.342;2022-09-13T00:32:44;8.63;;;6.65;;
61640;SDS011;62201;49.966;8.342;2022-09-13T00:35:10;10.93;;;7.03;;
61640;SDS011;62201;49.966;8.342;2022-09-13T00:37:35;14.80;;;7.50;;
61640;SDS011;62201;49.966;8.342;2022-09-13T00:40:01;11.23;;;6.75;;
61640;SDS011;62201;49.966;8.342;2022-09-13T00:42:28;13.02;;;6.95;;
61640;SDS011;62201;49.966;8.342;2022-09-13T00:45:00;10.48;;;6.70;;
61640;SDS011;62201;49.966;8.342;2022-09-13T00:53:05;12.40;;;7.53;;
61640;SDS011;62201;49.966;8.342;2022-09-13T00:55:42;15.70;;;7.30;;
61640;SDS011;62201;49.966;8.342;2022-09-13T00:59:00;13.70;;;7.32;;
61640;SDS011;62201;49.966;8.342;2022-09-13T01:01:02;9.07;;;6.60;;
61640;SDS011;62201;49.966;8.342;2022-09-13T01:03:32;15.43;;;6.78;;
61640;SDS011;62201;49.966;8.342;2022-09-13T01:06:01;11.05;;;7.28;;
61640;SDS011;62201;49.966;8.342;2022-09-13T01:08:31;11.07;;;6.97;;
61640;SDS011;62201;49.966;8.342;2022-09-13T01:10:58;14.85;;;7.13;;
61640;SDS011;62201;49.966;8.342;2022-09-13T01:13:25;13.63;;;7.03;;
61640;SDS011;62201;49.966;8.342;2022-09-13T01:15:57;11.20;;;6.50;;
61640;SDS011;62201;49.966;8.342;2022-09-13T01:18:23;14.23;;;7.05;;
61640;SDS011;62201;49.966;8.342;2022-09-13T01:24:01;10.07;;;7.28;;
61640;SDS011;62201;49.966;8.342;2022-09-13T01:26:57;11.25;;;6.95;;
61640;SDS011;62201;49.966;8.342;2022-09-13T01:32:13;12.15;;;7.80;;
61640;SDS011;62201;49.966;8.342;2022-09-13T01:43:06;11.02;;;7.68;;
61640;SDS011;62201;49.966;8.342;2022-09-13T01:45:37;12.68;;;7.63;;
61640;SDS011;62201;49.966;8.342;2022-09-13T01:48:47;14.02;;;8.75;;
61640;SDS011;62201;49.966;8.342;2022-09-13T02:01:55;12.48;;;8.93;;
61640;SDS011;62201;49.966;8.342;2022-09-13T02:04:32;15.98;;;8.43;;
61640;SDS011;62201;49.966;8.342;2022-09-13T02:07:49;14.95;;;8.57;;
61640;SDS011;62201;49.966;8.342;2022-09-13T02:09:56;12.93;;;8.13;;
61640;SDS011;62201;49.966;8.342;2022-09-13T02:12:25;19.60;;;10.80;;
61640;SDS011;62201;49.966;8.342;2022-09-13T02:14:55;14.07;;;8.07;;
61640;SDS011;62201;49.966;8.342;2022-09-13T02:17:27;12.20;;;8.40;;
61640;SDS011;62201;49.966;8.342;2022-09-13T02:22:31;13.90;;;8.75;;
61640;SDS011;62201;49.966;8.342;2022-09-13T02:25:03;19.80;;;10.10;;
61640;SDS011;62201;49.966;8.342;2022-09-13T02:27:33;10.48;;;7.55;;
61640;SDS011;62201;49.966;8.342;2022-09-13T02:30:03;12.93;;;9.93;;
61640;SDS011;62201;49.966;8.342;2022-09-13T02:32:36;13.27;;;8.35;;
61640;SDS011;62201;49.966;8.342;2022-09-13T02:35:13;17.05;;;10.30;;
61640;SDS011;62201;49.966;8.342;2022-09-13T02:37:44;16.23;;;8.77;;
61640;SDS011;62201;49.966;8.342;2022-09-13T02:40:17;22.75;;;11.95;;
61640;SDS011;62201;49.966;8.342;2022-09-13T02:42:56;14.32;;;10.23;;
61640;SDS011;62201;49.966;8.342;2022-09-13T02:45:29;16.10;;;8.60;;
61640;SDS011;62201;49.966;8.342;2022-09-13T02:47:59;14.15;;;8.55;;
61640;SDS011;62201;49.966;8.342;2022-09-13T02:50:37;12.68;;;9.00;;
61640;SDS011;62201;49.966;8.342;2022-09-13T02:53:52;12.65;;;7.75;;
61640;SDS011;62201;49.966;8.342;2022-09-13T03:01:41;10.38;;;7.20;;
61640;SDS011;62201;49.966;8.342;2022-09-13T03:04:13;10.35;;;7.40;;
61640;SDS011;62201;49.966;8.342;2022-09-13T03:06:39;10.73;;;6.97;;
61640;SDS011;62201;49.966;8.342;2022-09-13T03:09:05;12.43;;;7.47;;
61640;SDS011;62201;49.966;8.342;2022-09-13T03:14:19;12.18;;;7.53;;
61640;SDS011;62201;49.966;8.342;2022-09-13T03:17:02;14.48;;;7.13;;
61640;SDS011;62201;49.966;8.342;2022-09-13T03:26:40;11.77;;;7.15;;
61640;SDS011;62201;49.966;8.342;2022-09-13T03:28:54;8.50;;;6.65;;
61640;SDS011;62201;49.966;8.342;2022-09-13T03:31:30;13.23;;;7.50;;
61640;SDS011;62201;49.966;8.342;2022-09-13T03:34:09;12.07;;;7.00;;
61640;SDS011;62201;49.966;8.342;2022-09-13T03:36:41;9.70;;;6.38;;
61640;SDS011;62201;49.966;8.342;2022-09-13T03:41:43;10.10;;;7.03;;
61640;SDS011;62201;49.966;8.342;2022-09-13T03:44:12;9.55;;;6.28;;
61640;SDS011;62201;49.966;8.342;2022-09-13T03:46:41;12.07;;;6.45;;
61640;SDS011;62201;49.966;8.342;2022-09-13T03:49:13;10.75;;;6.95;;
61640;SDS011;62201;49.966;8.342;2022-09-13T03:51:42;9.13;;;6.82;;
61640;SDS011;62201;49.966;8.342;2022-09-13T03:54:11;10.68;;;7.05;;
61640;SDS011;62201;49.966;8.342;2022-09-13T03:56:41;9.18;;;7.05;;
61640;SDS011;62201;49.966;8.342;2022-09-13T03:59:07;10.13;;;6.70;;
61640;SDS011;62201;49.966;8.342;2022-09-13T04:01:32;9.50;;;6.75;;
61640;SDS011;62201;49.966;8.342;2022-09-13T04:03:58;8.15;;;6.70;;
61640;SDS011;62201;49.966;8.342;2022-09-13T04:06:23;15.10;;;7.68;;
61640;SDS011;62201;49.966;8.342;2022-09-13T04:08:49;11.52;;;7.10;;
61640;SDS011;62201;49.966;8.342;2022-09-13T04:11:14;10.85;;;6.88;;
61640;SDS011;62201;49.966;8.342;2022-09-13T04:13:39;10.85;;;6.70;;
61640;SDS011;62201;49.966;8.342;2022-09-13T04:16:06;12.60;;;6.75;;
61640;SDS011;62201;49.966;8.342;2022-09-13T04:18:31;10.73;;;7.22;;
61640;SDS011;62201;49.966;8.342;2022-09-13T04:20:58;9.95;;;7.05;;
61640;SDS011;62201;49.966;8.342;2022-09-13T04:23:25;8.80;;;6.97;;
61640;SDS011;62201;49.966;8.342;2022-09-13T04:25:52;13.15;;;7.70;;
61640;SDS011;62201;49.966;8.342;2022-09-13T04:28:18;11.48;;;7.28;;
61640;SDS011;62201;49.966;8.342;2022-09-13T04:30:45;13.63;;;7.20;;
61640;SDS011;62201;49.966;8.342;2022-09-13T04:33:12;13.50;;;6.57;;
61640;SDS011;62201;49.966;8.342;2022-09-13T04:35:38;10.90;;;7.93;;
61640;SDS011;62201;49.966;8.342;2022-09-13T04:38:04;14.98;;;7.50;;
61640;SDS011;62201;49.966;8.342;2022-09-13T04:40:30;11.52;;;7.47;;
61640;SDS011;62201;49.966;8.342;2022-09-13T04:42:55;13.32;;;7.30;;
61640;SDS011;62201;49.966;8.342;2022-09-13T04:45:21;13.35;;;7.60;;
61640;SDS011;62201;49.966;8.342;2022-09-13T04:47:50;14.38;;;6.95;;
61640;SDS011;62201;49.966;8.342;2022-09-13T04:50:19;16.83;;;7.53;;
61640;SDS011;62201;49.966;8.342;2022-09-13T04:52:45;10.60;;;8.05;;
61640;SDS011;62201;49.966;8.342;2022-09-13T04:55:11;14.38;;;8.57;;
61640;SDS011;62201;49.966;8.342;2022-09-13T04:57:37;11.40;;;8.10;;
61640;SDS011;62201;49.966;8.342;2022-09-13T05:00:03;11.00;;;7.53;;
61640;SDS011;62201;49.966;8.342;2022-09-13T05:02:29;12.55;;;7.72;;
61640;SDS011;62201;49.966;8.342;2022-09-13T05:04:54;15.98;;;7.43;;
61640;SDS011;62201;49.966;8.342;2022-09-13T05:07:20;9.57;;;7.63;;
61640;SDS011;62201;49.966;8.342;2022-09-13T05:09:45;13.35;;;7.82;;
61640;SDS011;62201;49.966;8.342;2022-09-13T05:12:11;12.23;;;6.88;;
61640;SDS011;62201;49.966;8.342;2022-09-13T05:14:37;9.25;;;6.90;;
61640;SDS011;62201;49.966;8.342;2022-09-13T05:17:03;14.25;;;7.93;;
61640;SDS011;62201;49.966;8.342;2022-09-13T05:19:28;14.35;;;7.32;;
61640;SDS011;62201;49.966;8.342;2022-09-13T05:21:53;14.27;;;7.90;;
61640;SDS011;62201;49.966;8.342;2022-09-13T05:24:19;9.80;;;7.70;;
61640;SDS011;62201;49.966;8.342;2022-09-13T05:26:44;14.95;;;8.10;;
61640;SDS011;62201;49.966;8.342;2022-09-13T05:29:10;12.27;;;7.75;;
61640;SDS011;62201;49.966;8.342;2022-09-13T05:31:36;9.18;;;8.13;;
61640;SDS011;62201;49.966;8.342;2022-09-13T05:34:08;15.05;;;7.97;;
61640;SDS011;62201;49.966;8.342;2022-09-13T05:36:35;18.30;;;8.43;;
61640;SDS011;62201;49.966;8.342;2022-09-13T05:39:02;13.65;;;8.40;;
61640;SDS011;62201;49.966;8.342;2022-09-13T05:41:28;15.02;;;8.15;;
61640;SDS011;62201;49.966;8.342;2022-09-13T05:43:53;12.55;;;8.13;;
61640;SDS011;62201;49.966;8.342;2022-09-13T05:46:19;14.52;;;7.70;;
61640;SDS011;62201;49.966;8.342;2022-09-13T05:48:45;12.88;;;7.32;;
61640;SDS011;62201;49.966;8.342;2022-09-13T05:51:19;12.02;;;7.20;;
61640;SDS011;62201;49.966;8.342;2022-09-13T05:53:46;14.65;;;8.07;;
61640;SDS011;62201;49.966;8.342;2022-09-13T05:56:15;11.95;;;8.52;;
61640;SDS011;62201;49.966;8.342;2022-09-13T05:58:42;11.27;;;8.73;;
61640;SDS011;62201;49.966;8.342;2022-09-13T06:01:09;11.40;;;8.10;;
61640;SDS011;62201;49.966;8.342;2022-09-13T06:03:35;10.48;;;7.40;;
61640;SDS011;62201;49.966;8.342;2022-09-13T06:06:01;10.93;;;8.00;;
61640;SDS011;62201;49.966;8.342;2022-09-13T06:08:28;13.57;;;7.72;;
61640;SDS011;62201;49.966;8.342;2022-09-13T06:10:58;10.43;;;7.68;;
61640;SDS011;62201;49.966;8.342;2022-09-13T06:13:27;12.98;;;8.15;;
61640;SDS011;62201;49.966;8.342;2022-09-13T06:15:54;9.68;;;7.72;;
61640;SDS011;62201;49.966;8.342;2022-09-13T06:18:21;9.48;;;7.53;;
61640;SDS011;62201;49.966;8.342;2022-09-13T06:20:48;11.35;;;7.25;;
61640;SDS011;62201;49.966;8.342;2022-09-13T06:23:14;11.25;;;8.52;;
61640;SDS011;62201;49.966;8.342;2022-09-13T06:25:40;12.25;;;8.20;;
61640;SDS011;62201;49.966;8.342;2022-09-13T06:28:06;25.00;;;9.27;;
61640;SDS011;62201;49.966;8.342;2022-09-13T06:30:31;11.63;;;8.15;;
61640;SDS011;62201;49.966;8.342;2022-09-13T06:32:57;12.93;;;9.00;;
61640;SDS011;62201;49.966;8.342;2022-09-13T06:35:23;21.05;;;8.55;;
61640;SDS011;62201;49.966;8.342;2022-09-13T06:37:49;12.75;;;9.93;;
61640;SDS011;62201;49.966;8.342;2022-09-13T06:40:15;14.05;;;8.98;;
61640;SDS011;62201;49.966;8.342;2022-09-13T06:42:41;12.70;;;8.88;;
61640;SDS011;62201;49.966;8.342;2022-09-13T06:45:07;11.52;;;8.35;;
61640;SDS011;62201;49.966;8.342;2022-09-13T06:47:32;14.82;;;8.70;;
61640;SDS011;62201;49.966;8.342;2022-09-13T06:49:58;8.13;;;7.20;;
61640;SDS011;62201;49.966;8.342;2022-09-13T06:52:24;13.05;;;7.78;;
61640;SDS011;62201;49.966;8.342;2022-09-13T06:54:50;16.23;;;8.88;;
61640;SDS011;62201;49.966;8.342;2022-09-13T06:57:16;10.82;;;7.82;;
61640;SDS011;62201;49.966;8.342;2022-09-13T06:59:41;11.82;;;8.05;;
61640;SDS011;62201;49.966;8.342;2022-09-13T07:02:08;12.40;;;8.70;;
61640;SDS011;62201;49.966;8.342;2022-09-13T07:04:34;9.77;;;8.00;;
61640;SDS011;62201;49.966;8.342;2022-09-13T07:06:59;14.27;;;9.35;;
61640;SDS011;62201;49.966;8.342;2022-09-13T07:09:24;11.90;;;8.13;;
61640;SDS011;62201;49.966;8.342;2022-09-13T07:11:51;12.48;;;8.25;;
61640;SDS011;62201;49.966;8.342;2022-09-13T07:14:19;12.20;;;7.95;;
61640;SDS011;62201;49.966;8.342;2022-09-13T07:16:49;14.70;;;8.80;;
61640;SDS011;62201;49.966;8.342;2022-09-13T07:19:16;12.32;;;9.00;;
61640;SDS011;62201;49.966;8.342;2022-09-13T07:21:44;11.25;;;8.60;;
61640;SDS011;62201;49.966;8.342;2022-09-13T07:24:09;12.80;;;8.48;;
61640;SDS011;62201;49.966;8.342;2022-09-13T07:26:36;16.85;;;9.68;;
61640;SDS011;62201;49.966;8.342;2022-09-13T07:29:03;15.60;;;9.65;;
61640;SDS011;62201;49.966;8.342;2022-09-13T07:31:31;16.90;;;8.48;;
61640;SDS011;62201;49.966;8.342;2022-09-13T07:33:59;16.15;;;9.55;;
61640;SDS011;62201;49.966;8.342;2022-09-13T07:36:27;29.33;;;8.70;;
61640;SDS011;62201;49.966;8.342;2022-09-13T07:38:54;19.88;;;9.38;;
61640;SDS011;62201;49.966;8.342;2022-09-13T07:41:20;16.20;;;10.23;;
61640;SDS011;62201;49.966;8.342;2022-09-13T07:43:47;16.17;;;9.48;;
61640;SDS011;62201;49.966;8.342;2022-09-13T07:46:14;14.02;;;10.05;;
61640;SDS011;62201;49.966;8.342;2022-09-13T07:48:42;19.52;;;10.02;;
61640;SDS011;62201;49.966;8.342;2022-09-13T07:51:12;14.13;;;10.30;;
61640;SDS011;62201;49.966;8.342;2022-09-13T07:53:44;24.33;;;10.13;;
61640;SDS011;62201;49.966;8.342;2022-09-13T07:56:12;18.35;;;9.10;;
61640;SDS011;62201;49.966;8.342;2022-09-13T07:58:45;13.55;;;9.27;;
61640;SDS011;62201;49.966;8.342;2022-09-13T08:01:16;20.20;;;10.48;;
61640;SDS011;62201;49.966;8.342;2022-09-13T08:03:43;12.52;;;9.75;;
61640;SDS011;62201;49.966;8.342;2022-09-13T08:06:14;13.57;;;9.23;;
61640;SDS011;62201;49.966;8.342;2022-09-13T08:08:39;14.95;;;9.48;;
61640;SDS011;62201;49.966;8.342;2022-09-13T08:11:08;13.43;;;9.52;;
61640;SDS011;62201;49.966;8.342;2022-09-13T08:13:40;11.85;;;8.18;;
61640;SDS011;62201;49.966;8.342;2022-09-13T08:16:05;12.55;;;8.52;;
61640;SDS011;62201;49.966;8.342;2022-09-13T08:18:31;14.32;;;7.70;;
61640;SDS011;62201;49.966;8.342;2022-09-13T08:20:57;13.02;;;7.57;;
61640;SDS011;62201;49.966;8.342;2022-09-13T08:23:23;15.85;;;7.13;;
61640;SDS011;62201;49.966;8.342;2022-09-13T08:25:49;12.52;;;7.00;;
61640;SDS011;62201;49.966;8.342;2022-09-13T08:28:16;9.48;;;6.78;;
61640;SDS011;62201;49.966;8.342;2022-09-13T08:30:43;11.95;;;7.65;;
61640;SDS011;62201;49.966;8.342;2022-09-13T08:33:09;8.98;;;7.28;;
61640;SDS011;62201;49.966;8.342;2022-09-13T08:35:35;12.40;;;6.95;;
61640;SDS011;62201;49.966;8.342;2022-09-13T08:38:02;9.07;;;7.47;;
61640;SDS011;62201;49.966;8.342;2022-09-13T08:40:29;11.55;;;7.70;;
61640;SDS011;62201;49.966;8.342;2022-09-13T08:45:53;11.45;;;7.15;;
61640;SDS011;62201;49.966;8.342;2022-09-13T08:48:37;11.23;;;7.40;;
61640;SDS011;62201;49.966;8.342;2022-09-13T08:51:08;15.65;;;8.35;;
61640;SDS011;62201;49.966;8.342;2022-09-13T08:53:47;10.53;;;7.90;;
61640;SDS011;62201;49.966;8.342;2022-09-13T08:56:22;20.30;;;9.32;;
61640;SDS011;62201;49.966;8.342;2022-09-13T09:02:24;13.30;;;9.50;;
61640;SDS011;62201;49.966;8.342;2022-09-13T09:05:18;18.60;;;9.73;;
61640;SDS011;62201;49.966;8.342;2022-09-13T09:08:02;14.63;;;10.18;;
61640;SDS011;62201;49.966;8.342;2022-09-13T09:10:41;15.50;;;9.90;;
61640;SDS011;62201;49.966;8.342;2022-09-13T09:13:21;14.07;;;9.73;;
61640;SDS011;62201;49.966;8.342;2022-09-13T09:18:58;12.57;;;8.82;;
61640;SDS011;62201;49.966;8.342;2022-09-13T09:21:31;14.15;;;8.75;;
61640;SDS011;62201;49.966;8.342;2022-09-13T09:23:57;14.52;;;7.85;;
61640;SDS011;62201;49.966;8.342;2022-09-13T09:26:28;13.70;;;8.20;;
61640;SDS011;62201;49.966;8.342;2022-09-13T09:41:40;10.63;;;6.97;;
61640;SDS011;62201;49.966;8.342;2022-09-13T09:46:45;10.98;;;7.35;;
61640;SDS011;62201;49.966;8.342;2022-09-13T09:50:03;10.43;;;6.68;;
61640;SDS011;62201;49.966;8.342;2022-09-13T09:55:30;9.32;;;7.45;;
61640;SDS011;62201;49.966;8.342;2022-09-13T09:58:01;9.70;;;7.28;;
61640;SDS011;62201;49.966;8.342;2022-09-13T10:00:29;10.80;;;7.50;;
61640;SDS011;62201;49.966;8.342;2022-09-13T10:03:05;14.80;;;8.75;;
61640;SDS011;62201;49.966;8.342;2022-09-13T10:05:42;18.05;;;9.25;;
61640;SDS011;62201;49.966;8.342;2022-09-13T10:08:10;15.32;;;9.13;;
61640;SDS011;62201;49.966;8.342;2022-09-13T10:10:58;15.85;;;8.43;;
61640;SDS011;62201;49.966;8.342;2022-09-13T10:13:24;12.38;;;9.10;;
61640;SDS011;62201;49.966;8.342;2022-09-13T10:15:51;13.73;;;8.48;;
61640;SDS011;62201;49.966;8.342;2022-09-13T10:18:27;12.43;;;8.98;;
61640;SDS011;62201;49.966;8.342;2022-09-13T10:21:02;10.18;;;7.78;;
61640;SDS011;62201;49.966;8.342;2022-09-13T10:23:43;9.23;;;8.15;;
61640;SDS011;62201;49.966;8.342;2022-09-13T10:28:59;16.10;;;9.30;;
61640;SDS011;62201;49.966;8.342;2022-09-13T10:31:30;19.17;;;9.73;;
61640;SDS011;62201;49.966;8.342;2022-09-13T10:33:59;14.13;;;8.68;;
61640;SDS011;62201;49.966;8.342;2022-09-13T10:36:28;12.35;;;8.82;;
61640;SDS011;62201;49.966;8.342;2022-09-13T10:38:57;11.75;;;8.95;;
61640;SDS011;62201;49.966;8.342;2022-09-13T10:41:31;13.32;;;9.02;;
61640;SDS011;62201;49.966;8.342;2022-09-13T10:44:03;12.98;;;9.63;;
61640;SDS011;62201;49.966;8.342;2022-09-13T10:46:32;14.63;;;9.48;;
61640;SDS011;62201;49.966;8.342;2022-09-13T10:49:00;22.90;;;10.45;;
61640;SDS011;62201;49.966;8.342;2022-09-13T10:54:24;17.60;;;11.15;;
61640;SDS011;62201;49.966;8.342;2022-09-13T10:56:44;15.40;;;10.00;;
61640;SDS011;62201;49.966;8.342;2022-09-13T11:13:13;15.50;;;11.32;;
61640;SDS011;62201;49.966;8.342;2022-09-13T11:15:54;17.38;;;11.02;;
61640;SDS011;62201;49.966;8.342;2022-09-13T11:21:44;18.88;;;11.32;;
61640;SDS011;62201;49.966;8.342;2022-09-13T11:24:57;12.75;;;10.20;;
61640;SDS011;62201;49.966;8.342;2022-09-13T11:27:25;16.33;;;11.07;;
61640;SDS011;62201;49.966;8.342;2022-09-13T11:30:19;18.80;;;10.85;;
61640;SDS011;62201;49.966;8.342;2022-09-13T11:41:35;19.75;;;11.50;;
61640;SDS011;62201;49.966;8.342;2022-09-13T11:52:06;14.93;;;12.00;;
61640;SDS011;62201;49.966;8.342;2022-09-13T11:57:50;15.35;;;12.75;;
61640;SDS011;62201;49.966;8.342;2022-09-13T12:05:31;17.42;;;11.10;;
61640;SDS011;62201;49.966;8.342;2022-09-13T12:08:22;19.02;;;12.10;;
61640;SDS011;62201;49.966;8.342;2022-09-13T12:11:03;16.63;;;12.18;;
61640;SDS011;62201;49.966;8.342;2022-09-13T12:13:45;17.85;;;12.10;;
61640;SDS011;62201;49.966;8.342;2022-09-13T12:16:47;18.27;;;12.55;;
61640;SDS011;62201;49.966;8.342;2022-09-13T12:19:20;17.27;;;12.27;;
61640;SDS011;62201;49.966;8.342;2022-09-13T12:21:52;17.00;;;12.68;;
61640;SDS011;62201;49.966;8.342;2022-09-13T12:27:03;16.42;;;12.98;;
61640;SDS011;62201;49.966;8.342;2022-09-13T12:32:20;21.90;;;13.52;;
61640;SDS011;62201;49.966;8.342;2022-09-13T12:35:07;22.05;;;13.80;;
61640;SDS011;62201;49.966;8.342;2022-09-13T12:51:43;20.10;;;12.90;;
61640;SDS011;62201;49.966;8.342;2022-09-13T12:57:27;17.02;;;12.23;;
61640;SDS011;62201;49.966;8.342;2022-09-13T13:03:03;18.10;;;12.70;;
61640;SDS011;62201;49.966;8.342;2022-09-13T13:05:40;19.48;;;12.32;;
61640;SDS011;62201;49.966;8.342;2022-09-13T13:13:52;18.23;;;11.48;;
61640;SDS011;62201;49.966;8.342;2022-09-13T13:18:49;14.32;;;11.93;;
61640;SDS011;62201;49.966;8.342;2022-09-13T13:21:23;22.48;;;12.43;;
61640;SDS011;62201;49.966;8.342;2022-09-13T13:24:36;19.80;;;11.73;;
61640;SDS011;62201;49.966;8.342;2022-09-13T13:26:49;16.77;;;12.27;;
61640;SDS011;62201;49.966;8.342;2022-09-13T13:29:20;22.05;;;12.57;;
61640;SDS011;62201;49.966;8.342;2022-09-13T13:34:26;22.27;;;11.02;;
61640;SDS011;62201;49.966;8.342;2022-09-13T13:36:59;19.23;;;10.60;;
61640;SDS011;62201;49.966;8.342;2022-09-13T13:39:48;17.80;;;9.93;;
61640;SDS011;62201;49.966;8.342;2022-09-13T13:42:35;17.05;;;9.90;;
61640;SDS011;62201;49.966;8.342;2022-09-13T13:45:05;14.35;;;9.95;;
61640;SDS011;62201;49.966;8.342;2022-09-13T13:47:49;18.13;;;10.68;;
61640;SDS011;62201;49.966;8.342;2022-09-13T13:50:18;17.63;;;10.82;;
61640;SDS011;62201;49.966;8.342;2022-09-13T13:55:25;12.38;;;10.15;;
61640;SDS011;62201;49.966;8.342;2022-09-13T13:58:25;14.98;;;8.95;;
61640;SDS011;62201;49.966;8.342;2022-09-13T14:00:55;15.25;;;9.52;;
61640;SDS011;62201;49.966;8.342;2022-09-13T14:03:37;17.10;;;10.40;;
61640;SDS011;62201;49.966;8.342;2022-09-13T14:09:06;15.10;;;9.23;;
61640;SDS011;62201;49.966;8.342;2022-09-13T14:14:20;13.30;;;9.00;;
61640;SDS011;62201;49.966;8.342;2022-09-13T14:20:08;16.48;;;10.43;;
61640;SDS011;62201;49.966;8.342;2022-09-13T14:22:36;13.20;;;9.32;;
61640;SDS011;62201;49.966;8.342;2022-09-13T14:25:12;17.23;;;10.25;;
61640;SDS011;62201;49.966;8.342;2022-09-13T14:27:44;14.65;;;9.80;;
61640;SDS011;62201;49.966;8.342;2022-09-13T14:33:15;17.02;;;9.90;;
61640;SDS011;62201;49.966;8.342;2022-09-13T14:35:47;13.75;;;9.00;;
61640;SDS011;62201;49.966;8.342;2022-09-13T14:38:23;14.05;;;9.38;;
61640;SDS011;62201;49.966;8.342;2022-09-13T14:40:57;15.98;;;9.40;;
61640;SDS011;62201;49.966;8.342;2022-09-13T14:43:25;16.52;;;9.85;;
61640;SDS011;62201;49.966;8.342;2022-09-13T14:45:57;14.95;;;9.05;;
61640;SDS011;62201;49.966;8.342;2022-09-13T14:48:31;13.65;;;9.75;;
61640;SDS011;62201;49.966;8.342;2022-09-13T14:51:25;16.90;;;10.00;;
61640;SDS011;62201;49.966;8.342;2022-09-13T14:53:58;12.63;;;9.73;;
61640;SDS011;62201;49.966;8.342;2022-09-13T14:59:10;11.95;;;10.48;;
61640;SDS011;62201;49.966;8.342;2022-09-13T15:01:50;17.08;;;10.45;;
61640;SDS011;62201;49.966;8.342;2022-09-13T15:04:16;16.63;;;10.57;;
61640;SDS011;62201;49.966;8.342;2022-09-13T15:06:43;14.23;;;10.20;;
61640;SDS011;62201;49.966;8.342;2022-09-13T15:11:35;16.65;;;10.25;;
61640;SDS011;62201;49.966;8.342;2022-09-13T15:14:34;16.30;;;10.03;;
61640;SDS011;62201;49.966;8.342;2022-09-13T15:19:34;15.15;;;10.43;;
61640;SDS011;62201;49.966;8.342;2022-09-13T15:22:21;15.02;;;10.57;;
61640;SDS011;62201;49.966;8.342;2022-09-13T15:24:55;16.38;;;10.38;;
61640;SDS011;62201;49.966;8.342;2022-09-13T15:27:27;16.02;;;10.32;;
61640;SDS011;62201;49.966;8.342;2022-09-13T15:30:21;15.13;;;10.60;;
61640;SDS011;62201;49.966;8.342;2022-09-13T15:33:12;19.08;;;10.73;;
61640;SDS011;62201;49.966;8.342;2022-09-13T15:35:42;14.25;;;10.55;;
61640;SDS011;62201;49.966;8.342;2022-09-13T15:38:14;13.65;;;9.75;;
61640;SDS011;62201;49.966;8.342;2022-09-13T15:40:56;15.98;;;10.40;;
61640;SDS011;62201;49.966;8.342;2022-09-13T15:43:27;17.25;;;10.77;;
61640;SDS011;62201;49.966;8.342;2022-09-13T15:45:54;12.65;;;10.23;;
61640;SDS011;62201;49.966;8.342;2022-09-13T15:48:28;16.45;;;9.80;;
61640;SDS011;62201;49.966;8.342;2022-09-13T15:51:13;14.18;;;10.10;;
61640;SDS011;62201;49.966;8.342;2022-09-13T15:53:40;17.88;;;10.35;;
61640;SDS011;62201;49.966;8.342;2022-09-13T15:56:07;15.77;;;9.70;;
61640;SDS011;62201;49.966;8.342;2022-09-13T15:58:34;16.58;;;9.80;;
61640;SDS011;62201;49.966;8.342;2022-09-13T16:01:00;15.23;;;10.48;;
61640;SDS011;62201;49.966;8.342;2022-09-13T16:03:26;11.73;;;9.55;;
61640;SDS011;62201;49.966;8.342;2022-09-13T16:05:52;16.60;;;9.57;;
61640;SDS011;62201;49.966;8.342;2022-09-13T16:08:18;13.23;;;10.23;;
61640;SDS011;62201;49.966;8.342;2022-09-13T16:10:44;22.05;;;9.68;;
61640;SDS011;62201;49.966;8.342;2022-09-13T16:13:09;13.68;;;9.00;;
61640;SDS011;62201;49.966;8.342;2022-09-13T16:15:35;15.60;;;9.77;;
61640;SDS011;62201;49.966;8.342;2022-09-13T16:18:00;11.63;;;8.88;;
61640;SDS011;62201;49.966;8.342;2022-09-13T16:20:26;15.23;;;8.90;;
61640;SDS011;62201;49.966;8.342;2022-09-13T16:22:52;13.50;;;9.60;;
61640;SDS011;62201;49.966;8.342;2022-09-13T16:25:18;11.73;;;9.48;;
61640;SDS011;62201;49.966;8.342;2022-09-13T16:27:44;10.82;;;9.32;;
61640;SDS011;62201;49.966;8.342;2022-09-13T16:30:13;12.63;;;9.32;;
61640;SDS011;62201;49.966;8.342;2022-09-13T16:32:40;15.07;;;9.02;;
61640;SDS011;62201;49.966;8.342;2022-09-13T16:35:06;15.05;;;9.50;;
61640;SDS011;62201;49.966;8.342;2022-09-13T16:37:32;10.70;;;8.70;;
61640;SDS011;62201;49.966;8.342;2022-09-13T16:39:58;20.70;;;9.45;;
61640;SDS011;62201;49.966;8.342;2022-09-13T16:42:24;15.63;;;9.88;;
61640;SDS011;62201;49.966;8.342;2022-09-13T16:44:49;16.95;;;11.10;;
61640;SDS011;62201;49.966;8.342;2022-09-13T16:47:15;14.95;;;9.80;;
61640;SDS011;62201;49.966;8.342;2022-09-13T16:49:40;14.30;;;10.18;;
61640;SDS011;62201;49.966;8.342;2022-09-13T16:52:06;17.52;;;10.77;;
61640;SDS011;62201;49.966;8.342;2022-09-13T16:54:33;15.32;;;9.30;;
61640;SDS011;62201;49.966;8.342;2022-09-13T16:56:59;13.75;;;9.85;;
61640;SDS011;62201;49.966;8.342;2022-09-13T16:59:29;13.48;;;9.65;;
61640;SDS011;62201;49.966;8.342;2022-09-13T17:01:55;15.25;;;10.10;;
61640;SDS011;62201;49.966;8.342;2022-09-13T17:04:21;16.92;;;10.60;;
61640;SDS011;62201;49.966;8.342;2022-09-13T17:06:47;12.85;;;9.77;;
61640;SDS011;62201;49.966;8.342;2022-09-13T17:09:13;13.30;;;9.07;;
61640;SDS011;62201;49.966;8.342;2022-09-13T17:11:39;20.23;;;9.50;;
61640;SDS011;62201;49.966;8.342;2022-09-13T17:14:07;11.90;;;8.98;;
61640;SDS011;62201;49.966;8.342;2022-09-13T17:16:39;14.00;;;9.85;;
61640;SDS011;62201;49.966;8.342;2022-09-13T17:21:35;12.60;;;9.93;;
61640;SDS011;62201;49.966;8.342;2022-09-13T17:24:01;16.63;;;10.18;;
61640;SDS011;62201;49.966;8.342;2022-09-13T17:26:27;17.45;;;11.13;;
61640;SDS011;62201;49.966;8.342;2022-09-13T17:28:52;17.30;;;11.23;;
61640;SDS011;62201;49.966;8.342;2022-09-13T17:31:18;17.73;;;11.35;;
61640;SDS011;62201;49.966;8.342;2022-09-13T17:33:44;16.52;;;10.65;;
61640;SDS011;62201;49.966;8.342;2022-09-13T17:36:10;16.65;;;10.40;;
61640;SDS011;62201;49.966;8.342;2022-09-13T17:38:38;20.23;;;10.82;;
61640;SDS011;62201;49.966;8.342;2022-09-13T17:41:05;13.43;;;9.48;;
61640;SDS011;62201;49.966;8.342;2022-09-13T17:43:33;19.35;;;10.93;;
61640;SDS011;62201;49.966;8.342;2022-09-13T17:46:32;18.08;;;11.63;;
61640;SDS011;62201;49.966;8.342;2022-09-13T17:48:53;22.05;;;10.50;;
61640;SDS011;62201;49.966;8.342;2022-09-13T17:51:20;22.95;;;10.30;;
61640;SDS011;62201;49.966;8.342;2022-09-13T17:53:52;16.02;;;10.65;;
61640;SDS011;62201;49.966;8.342;2022-09-13T17:56:19;15.80;;;11.25;;
61640;SDS011;62201;49.966;8.342;2022-09-13T17:58:46;34.20;;;11.25;;